Time;durP1;ratioP1;P1;durP2;ratioP2;P2;SDS_P1;SDS_P2;PMS_P1;PMS_P2;Temp;Humidity;BMP_temperature;BMP_pressure;BME280_temperature;BME280_humidity;BME280_pressure;Samples;Min_cycle;Max_cycle;Signal;HPM_P1;HPM_P2
2022/12/13 00:01:21;;;;;;;4.90;4.30;;;16.60;82.00;;;;;;4158089;28;20266;-75
2022/12/13 00:03:23;;;;;;;5.13;4.50;;;16.60;82.30;;;;;;4158876;28;20217;-75
2022/12/13 00:05:26;;;;;;;6.00;4.53;;;16.60;81.60;;;;;;4160469;28;20274;-78
2022/12/13 00:07:28;;;;;;;5.57;4.32;;;16.60;82.20;;;;;;4154509;28;20321;-76
2022/12/13 00:09:30;;;;;;;5.38;4.50;;;16.60;81.70;;;;;;4154920;28;20290;-76
2022/12/13 00:11:33;;;;;;;5.00;4.50;;;16.60;81.40;;;;;;4158315;28;20219;-76
2022/12/13 00:13:37;;;;;;;5.68;4.80;;;16.60;81.80;;;;;;4161276;28;20224;-76
2022/12/13 00:15:39;;;;;;;5.88;5.07;;;16.60;81.50;;;;;;4159384;28;20250;-76
2022/12/13 00:17:42;;;;;;;5.50;4.53;;;16.60;81.40;;;;;;4160735;28;20216;-76
2022/12/13 00:19:44;;;;;;;5.88;4.63;;;16.50;81.50;;;;;;4166187;28;20220;-76
2022/12/13 00:21:46;;;;;;;6.68;5.05;;;16.50;81.40;;;;;;4156860;28;20220;-76
2022/12/13 00:23:49;;;;;;;6.03;5.05;;;16.60;81.40;;;;;;4154607;28;20271;-76
2022/12/13 00:25:52;;;;;;;5.80;4.90;;;16.60;81.60;;;;;;4159999;28;20215;-76
2022/12/13 00:27:54;;;;;;;5.47;4.88;;;16.60;81.20;;;;;;4154760;28;20260;-76
2022/12/13 00:29:58;;;;;;;5.20;4.63;;;16.60;81.30;;;;;;4161615;28;20220;-76
2022/12/13 00:32:02;;;;;;;5.93;4.68;;;16.50;81.30;;;;;;4160627;28;20263;-76
2022/12/13 00:34:04;;;;;;;5.97;4.82;;;16.50;80.80;;;;;;4157800;28;20254;-76
2022/12/13 00:36:08;;;;;;;6.03;4.90;;;16.50;80.80;;;;;;4156102;28;20213;-76
2022/12/13 00:38:10;;;;;;;6.03;4.72;;;16.50;80.60;;;;;;4159040;28;20221;-76
2022/12/13 00:40:13;;;;;;;6.70;5.10;;;16.50;80.80;;;;;;4156046;28;20723;-76
2022/12/13 00:42:15;;;;;;;6.50;5.07;;;16.50;81.00;;;;;;4157423;28;20259;-76
2022/12/13 00:44:18;;;;;;;6.07;4.70;;;16.50;81.10;;;;;;4161510;28;20259;-76
2022/12/13 00:46:22;;;;;;;6.22;4.57;;;16.50;81.40;;;;;;4150725;28;20217;-76
2022/12/13 00:48:24;;;;;;;5.30;4.57;;;16.40;81.00;;;;;;4161169;28;20750;-76
2022/12/13 00:50:27;;;;;;;6.85;5.30;;;16.40;80.80;;;;;;4164787;28;20261;-76
2022/12/13 00:52:29;;;;;;;5.90;4.97;;;16.50;80.90;;;;;;4157581;28;20207;-76
2022/12/13 00:54:31;;;;;;;7.07;5.07;;;16.40;80.40;;;;;;4162217;28;20216;-77
2022/12/13 00:56:34;;;;;;;6.65;5.43;;;16.40;80.80;;;;;;4162235;28;20265;-77
2022/12/13 00:58:36;;;;;;;5.65;4.65;;;16.40;80.90;;;;;;4153107;28;20209;-76
2022/12/13 01:00:39;;;;;;;7.60;5.10;;;16.40;80.80;;;;;;4162696;28;20266;-76
2022/12/13 01:02:43;;;;;;;6.90;5.53;;;16.40;81.00;;;;;;4157322;28;20690;-76
2022/12/13 01:04:45;;;;;;;6.07;4.97;;;16.40;80.60;;;;;;4161566;28;20212;-76
2022/12/13 01:06:50;;;;;;;5.88;5.20;;;16.40;80.40;;;;;;4159860;28;20554;-77
2022/12/13 01:08:52;;;;;;;6.25;4.85;;;16.40;80.40;;;;;;4157593;28;20236;-76
2022/12/13 01:10:55;;;;;;;6.05;4.85;;;16.40;80.40;;;;;;4153021;28;20626;-77
2022/12/13 01:12:57;;;;;;;6.78;5.38;;;16.40;80.40;;;;;;4159887;28;20705;-76
2022/12/13 01:15:00;;;;;;;5.82;5.22;;;16.40;80.40;;;;;;4152522;28;20225;-76
2022/12/13 01:17:02;;;;;;;7.03;5.38;;;16.40;80.50;;;;;;4156828;28;20217;-76
2022/12/13 01:19:06;;;;;;;6.82;5.60;;;16.40;80.00;;;;;;4160500;28;20327;-77
2022/12/13 01:21:12;;;;;;;8.00;5.50;;;16.40;80.60;;;;;;4154073;28;20649;-76
2022/12/13 01:23:14;;;;;;;6.95;6.10;;;16.30;80.20;;;;;;4160166;28;20235;-76
2022/12/13 01:25:16;;;;;;;7.55;5.30;;;16.30;80.30;;;;;;4167296;28;20224;-77
2022/12/13 01:27:19;;;;;;;6.85;5.30;;;16.30;80.30;;;;;;4152511;28;20213;-77
2022/12/13 01:29:22;;;;;;;6.85;5.18;;;16.30;80.20;;;;;;4165490;28;20774;-77
2022/12/13 01:31:25;;;;;;;7.90;5.65;;;16.30;79.70;;;;;;4157592;28;20233;-76
2022/12/13 01:33:28;;;;;;;8.45;5.95;;;16.30;79.70;;;;;;4155221;28;20217;-77
2022/12/13 01:35:34;;;;;;;6.63;5.13;;;16.30;80.20;;;;;;4162374;28;20239;-76
2022/12/13 01:37:36;;;;;;;8.23;5.20;;;16.30;79.70;;;;;;4166910;28;20741;-77
2022/12/13 01:39:38;;;;;;;7.60;5.63;;;16.20;79.70;;;;;;4158360;28;20258;-77
2022/12/13 01:41:42;;;;;;;8.60;6.00;;;16.30;80.00;;;;;;4166637;28;20212;-76
2022/12/13 01:43:54;;;;;;;9.15;5.65;;;16.30;79.70;;;;;;4163754;28;20262;-77
2022/12/13 01:45:56;;;;;;;8.20;5.47;;;16.20;80.00;;;;;;4159508;28;20216;-77
2022/12/13 01:48:02;;;;;;;9.25;6.32;;;16.30;79.70;;;;;;4156697;28;20220;-77
2022/12/13 01:50:09;;;;;;;8.90;5.45;;;16.20;79.90;;;;;;4168582;28;20236;-77
2022/12/13 01:52:15;;;;;;;9.50;6.15;;;16.20;79.90;;;;;;4161010;28;20735;-76
2022/12/13 01:54:19;;;;;;;9.00;5.80;;;16.20;80.00;;;;;;4164765;28;20220;-76
2022/12/13 01:56:26;;;;;;;10.80;6.32;;;16.20;80.10;;;;;;4163600;28;20213;-76
2022/12/13 01:58:29;;;;;;;8.90;6.57;;;16.20;79.70;;;;;;4161622;28;20266;-76
2022/12/13 02:00:33;;;;;;;8.93;6.35;;;16.20;79.60;;;;;;4159601;28;20208;-76
2022/12/13 02:02:37;;;;;;;11.07;5.97;;;16.20;79.60;;;;;;4160922;28;20253;-77
2022/12/13 02:04:46;;;;;;;10.90;6.20;;;16.20;79.60;;;;;;4165992;28;20228;-76
2022/12/13 02:06:49;;;;;;;8.32;5.93;;;16.20;79.70;;;;;;4158255;28;20323;-76
2022/12/13 02:08:53;;;;;;;9.65;6.03;;;16.20;79.50;;;;;;4159526;28;20220;-76
2022/12/13 02:10:55;;;;;;;9.65;5.75;;;16.20;79.80;;;;;;4169807;28;20216;-76
2022/12/13 02:12:58;;;;;;;8.45;6.35;;;16.20;79.40;;;;;;4163151;28;20271;-76
2022/12/13 02:15:03;;;;;;;8.45;5.88;;;16.20;79.10;;;;;;4161165;28;20282;-77
2022/12/13 02:17:11;;;;;;;10.68;6.05;;;16.20;79.10;;;;;;4157974;28;20646;-77
2022/12/13 02:19:55;;;;;;;8.88;5.78;;;16.10;79.50;;;;;;4160425;28;20275;-77
2022/12/13 02:22:12;;;;;;;7.47;5.88;;;16.10;79.80;;;;;;4159450;28;20634;-76
2022/12/13 02:24:47;;;;;;;7.65;5.97;;;16.10;80.50;;;;;;4164409;28;20216;-77
2022/12/13 02:27:14;;;;;;;7.72;5.70;;;16.10;79.20;;;;;;4164487;28;20219;-76
2022/12/13 02:30:00;;;;;;;9.45;6.07;;;16.10;79.80;;;;;;4162585;28;20235;-76
2022/12/13 02:32:12;;;;;;;7.00;5.43;;;16.10;79.00;;;;;;4154883;28;20300;-76
2022/12/13 02:34:19;;;;;;;8.05;5.47;;;16.10;79.10;;;;;;4163721;28;20262;-76
2022/12/13 02:36:29;;;;;;;7.90;6.28;;;16.10;79.10;;;;;;4157357;28;20650;-76
2022/12/13 02:38:39;;;;;;;7.95;6.30;;;16.10;79.30;;;;;;4156150;28;20216;-77
2022/12/13 02:40:46;;;;;;;8.35;6.25;;;16.10;79.20;;;;;;4154134;28;20205;-76
2022/12/13 02:42:56;;;;;;;9.27;5.88;;;16.00;78.70;;;;;;4160957;28;20223;-76
2022/12/13 02:45:05;;;;;;;8.43;6.50;;;16.00;79.20;;;;;;4158426;28;20242;-76
2022/12/13 02:47:12;;;;;;;8.07;6.00;;;16.10;79.20;;;;;;4166855;28;20211;-76
2022/12/13 02:49:16;;;;;;;8.90;6.28;;;16.00;79.00;;;;;;4157646;28;20217;-76
2022/12/13 02:51:22;;;;;;;9.50;5.80;;;16.00;78.70;;;;;;4165350;28;20293;-76
2022/12/13 02:53:26;;;;;;;7.15;5.30;;;16.00;79.40;;;;;;4160757;28;20216;-76
2022/12/13 02:55:31;;;;;;;7.18;5.70;;;16.00;79.00;;;;;;4158444;28;20257;-76
2022/12/13 02:57:35;;;;;;;8.38;6.32;;;16.00;78.60;;;;;;4155978;28;20248;-77
2022/12/13 02:59:39;;;;;;;9.00;6.03;;;16.00;79.10;;;;;;4162401;28;20269;-76
2022/12/13 03:01:53;;;;;;;8.48;5.88;;;16.00;78.60;;;;;;4157331;28;21023;-76
2022/12/13 03:04:07;;;;;;;8.52;5.95;;;16.00;78.70;;;;;;4164678;28;20850;-76
2022/12/13 03:06:29;;;;;;;8.07;5.40;;;16.00;79.40;;;;;;4148010;28;20217;-77
2022/12/13 03:08:45;;;;;;;6.45;5.63;;;16.00;79.00;;;;;;4162068;28;20205;-77
2022/12/13 03:10:56;;;;;;;8.45;5.90;;;16.00;78.50;;;;;;4162288;28;20688;-76
2022/12/13 03:15:29;;;;;;;9.23;6.25;;;16.00;78.90;;;;;;4162186;28;20201;-76
2022/12/13 03:17:39;;;;;;;8.18;6.20;;;16.00;78.70;;;;;;4151651;28;20216;-76
2022/12/13 03:19:43;;;;;;;7.15;5.85;;;15.90;78.40;;;;;;4158987;28;20200;-76
2022/12/13 03:21:48;;;;;;;6.47;5.40;;;16.00;78.40;;;;;;4162012;28;20271;-77
2022/12/13 03:23:51;;;;;;;8.52;5.80;;;15.90;78.30;;;;;;4154262;28;20266;-77
2022/12/13 03:25:56;;;;;;;7.75;5.75;;;15.90;78.40;;;;;;4157858;28;20286;-76
2022/12/13 03:27:58;;;;;;;7.55;6.13;;;15.90;77.90;;;;;;4164080;28;20225;-76
2022/12/13 03:30:00;;;;;;;9.50;6.00;;;15.90;78.40;;;;;;4154997;28;20237;-76
2022/12/13 03:32:03;;;;;;;8.15;5.22;;;15.90;78.10;;;;;;4165008;28;20247;-76
2022/12/13 03:34:05;;;;;;;7.68;5.93;;;15.90;77.60;;;;;;4171253;28;20211;-76
2022/12/13 03:36:11;;;;;;;9.20;5.85;;;15.90;78.30;;;;;;4157068;28;20216;-76
2022/12/13 03:38:15;;;;;;;9.13;6.70;;;15.90;78.40;;;;;;4165710;28;20216;-77
2022/12/13 03:40:18;;;;;;;9.15;5.78;;;15.90;78.30;;;;;;4158784;28;20260;-76
2022/12/13 03:42:20;;;;;;;7.28;5.70;;;15.90;78.40;;;;;;4160028;28;20216;-76
2022/12/13 03:44:23;;;;;;;8.55;6.30;;;15.90;78.30;;;;;;4164237;28;20266;-76
2022/12/13 03:46:25;;;;;;;7.90;5.55;;;15.90;78.20;;;;;;4158330;28;20658;-76
2022/12/13 03:48:28;;;;;;;9.40;5.63;;;15.90;78.40;;;;;;4160548;28;20261;-76
2022/12/13 03:50:30;;;;;;;7.30;5.67;;;15.90;78.30;;;;;;4170126;28;20231;-76
2022/12/13 03:52:34;;;;;;;7.10;6.13;;;15.90;77.80;;;;;;4156767;28;20259;-76
2022/12/13 03:54:36;;;;;;;7.65;5.80;;;15.80;78.30;;;;;;4163331;28;20220;-77
2022/12/13 03:56:38;;;;;;;7.33;5.70;;;15.80;78.20;;;;;;4166500;28;20254;-76
2022/12/13 03:58:42;;;;;;;9.10;6.40;;;15.90;77.80;;;;;;4153587;28;20258;-76
2022/12/13 04:00:44;;;;;;;7.95;6.28;;;15.80;77.80;;;;;;4154091;28;20217;-76
2022/12/13 04:02:47;;;;;;;8.95;6.07;;;15.80;77.70;;;;;;4156133;28;20543;-76
2022/12/13 04:04:49;;;;;;;7.05;5.78;;;15.80;77.90;;;;;;4157504;28;20220;-76
2022/12/13 04:06:51;;;;;;;8.95;5.85;;;15.80;78.10;;;;;;4164971;28;20273;-76
2022/12/13 04:08:55;;;;;;;8.45;6.60;;;15.80;77.80;;;;;;4158151;28;20216;-76
2022/12/13 04:10:57;;;;;;;8.38;6.50;;;15.80;77.80;;;;;;4156660;28;20236;-76
2022/12/13 04:15:20;;;;;;;7.70;5.93;;;15.80;78.20;;;;;;4157140;28;20205;-76
2022/12/13 04:17:22;;;;;;;8.65;5.78;;;15.80;77.50;;;;;;4164052;28;20660;-76
2022/12/13 04:19:24;;;;;;;8.07;5.90;;;15.80;77.50;;;;;;4159551;28;20225;-76
2022/12/13 04:21:27;;;;;;;7.22;6.07;;;15.80;77.10;;;;;;4154180;28;20217;-76
2022/12/13 04:23:29;;;;;;;8.38;6.00;;;15.80;77.60;;;;;;4157020;28;20213;-76
2022/12/13 04:25:33;;;;;;;6.35;5.40;;;15.80;77.50;;;;;;4156345;28;20526;-76
2022/12/13 04:27:36;;;;;;;6.97;5.93;;;15.70;77.60;;;;;;4152220;28;20275;-76
2022/12/13 04:29:39;;;;;;;6.90;5.28;;;15.80;77.80;;;;;;4164141;28;20229;-76
2022/12/13 04:31:41;;;;;;;8.80;6.03;;;15.80;77.20;;;;;;4165425;28;20243;-76
2022/12/13 04:33:43;;;;;;;7.13;5.83;;;15.70;77.40;;;;;;4153455;28;20217;-76
2022/12/13 04:35:46;;;;;;;8.73;6.03;;;15.70;77.30;;;;;;4163975;28;20220;-76
2022/12/13 04:37:48;;;;;;;9.02;5.47;;;15.70;77.40;;;;;;4161241;28;20282;-76
2022/12/13 04:39:51;;;;;;;7.85;6.13;;;15.70;77.70;;;;;;4151281;28;20217;-76
2022/12/13 04:41:55;;;;;;;7.70;5.88;;;15.70;77.00;;;;;;4163125;28;20214;-76
2022/12/13 04:43:57;;;;;;;7.43;5.68;;;15.70;77.20;;;;;;4153497;28;20625;-76
2022/12/13 04:45:59;;;;;;;8.17;5.87;;;15.70;77.30;;;;;;4154562;28;20274;-76
2022/12/13 04:48:02;;;;;;;7.55;5.90;;;15.70;77.40;;;;;;4162375;28;20278;-77
2022/12/13 04:50:05;;;;;;;7.17;5.40;;;15.70;77.20;;;;;;4157631;28;20276;-76
2022/12/13 04:52:07;;;;;;;7.60;5.30;;;15.70;77.30;;;;;;4156173;28;20271;-76
2022/12/13 04:54:10;;;;;;;6.82;5.30;;;15.70;77.10;;;;;;4158234;28;20220;-76
2022/12/13 04:56:12;;;;;;;6.50;5.40;;;15.70;77.20;;;;;;4158614;28;20650;-76
2022/12/13 04:58:18;;;;;;;6.00;5.32;;;15.70;77.30;;;;;;4156858;28;20979;-76
2022/12/13 05:00:21;;;;;;;6.95;5.95;;;15.70;77.00;;;;;;4159960;28;20262;-76
2022/12/13 05:02:24;;;;;;;7.87;6.10;;;15.70;77.20;;;;;;4164854;28;20216;-76
2022/12/13 05:04:26;;;;;;;6.97;5.63;;;15.70;77.10;;;;;;4158497;28;20637;-76
2022/12/13 05:06:29;;;;;;;6.95;5.32;;;15.70;77.90;;;;;;4170579;28;20212;-77
2022/12/13 05:08:31;;;;;;;7.30;6.00;;;15.70;77.00;;;;;;4162908;28;20216;-76
2022/12/13 05:10:34;;;;;;;7.88;5.80;;;15.70;77.20;;;;;;4159876;28;20751;-76
2022/12/13 05:12:36;;;;;;;7.10;5.95;;;15.60;76.70;;;;;;4159751;28;20220;-77
2022/12/13 05:14:40;;;;;;;7.47;5.88;;;15.60;77.00;;;;;;4158161;28;20217;-76
2022/12/13 05:16:42;;;;;;;7.85;5.90;;;15.60;77.40;;;;;;4162763;28;20221;-76
2022/12/13 05:18:45;;;;;;;7.15;5.75;;;15.60;76.60;;;;;;4164388;28;20220;-76
2022/12/13 05:20:49;;;;;;;9.07;6.10;;;15.60;76.90;;;;;;4163343;28;20270;-77
2022/12/13 05:22:55;;;;;;;7.37;5.80;;;15.60;76.60;;;;;;4157227;28;20243;-76
2022/12/13 05:24:58;;;;;;;8.27;6.03;;;15.60;77.10;;;;;;4166003;28;20306;-77
2022/12/13 05:27:00;;;;;;;7.20;5.53;;;15.60;76.70;;;;;;4161153;28;20224;-76
2022/12/13 05:29:02;;;;;;;7.40;5.85;;;15.60;76.70;;;;;;4165129;28;20229;-76
2022/12/13 05:31:10;;;;;;;7.33;5.83;;;15.60;76.20;;;;;;4169913;28;20282;-76
2022/12/13 05:33:12;;;;;;;8.50;6.00;;;15.60;76.20;;;;;;4122760;28;20210;-76
2022/12/13 05:35:15;;;;;;;7.23;5.53;;;15.60;76.40;;;;;;4128690;28;20214;-76
2022/12/13 05:37:18;;;;;;;6.30;5.33;;;15.60;76.60;;;;;;4131961;28;20275;-77
2022/12/13 05:39:20;;;;;;;8.32;5.68;;;15.60;76.70;;;;;;4119897;28;20730;-76
2022/12/13 05:41:24;;;;;;;7.53;5.97;;;15.50;76.60;;;;;;4131418;28;20214;-76
2022/12/13 05:43:26;;;;;;;8.13;6.13;;;15.50;76.70;;;;;;4131104;28;20658;-76
2022/12/13 05:45:29;;;;;;;8.37;5.90;;;15.50;76.40;;;;;;4123003;28;20221;-76
2022/12/13 05:47:33;;;;;;;8.20;6.17;;;15.50;76.60;;;;;;4128059;28;20218;-76
2022/12/13 05:49:35;;;;;;;8.20;5.90;;;15.50;76.30;;;;;;4130411;28;20537;-76
2022/12/13 05:51:38;;;;;;;7.40;5.83;;;15.60;76.20;;;;;;4126873;28;20242;-77
2022/12/13 05:53:41;;;;;;;9.13;6.13;;;15.50;75.80;;;;;;4127402;28;20265;-77
2022/12/13 05:55:44;;;;;;;7.80;6.47;;;15.40;75.20;;;;;;4129248;28;20261;-76
2022/12/13 05:57:46;;;;;;;9.13;5.83;;;15.40;74.80;;;;;;4123799;28;20565;-77
2022/12/13 05:59:49;;;;;;;7.00;5.75;;;15.40;75.40;;;;;;4124874;28;20294;-76
2022/12/13 06:01:51;;;;;;;6.60;5.87;;;15.40;74.80;;;;;;4122618;28;20241;-76
2022/12/13 06:03:55;;;;;;;8.53;5.77;;;15.40;75.80;;;;;;4120819;28;20260;-76
2022/12/13 06:06:01;;;;;;;7.63;6.38;;;15.50;76.20;;;;;;4127191;28;20295;-76
2022/12/13 06:08:03;;;;;;;6.90;6.13;;;15.60;76.20;;;;;;4127124;28;20210;-76
2022/12/13 06:10:07;;;;;;;7.43;6.03;;;15.60;76.40;;;;;;4121806;28;20218;-76
2022/12/13 06:12:09;;;;;;;7.73;6.80;;;15.60;76.20;;;;;;4120271;28;20237;-77
2022/12/13 06:14:12;;;;;;;7.60;6.17;;;15.70;76.30;;;;;;4131102;28;20232;-76
2022/12/13 06:16:14;;;;;;;8.00;6.32;;;15.70;76.00;;;;;;4122825;28;20218;-76
2022/12/13 06:18:16;;;;;;;7.78;5.82;;;15.70;75.90;;;;;;4125360;28;20214;-76
2022/12/13 06:20:20;;;;;;;9.53;7.07;;;15.70;76.20;;;;;;4121734;28;20222;-76
2022/12/13 06:22:22;;;;;;;7.50;5.93;;;15.80;77.20;;;;;;4123202;28;20210;-76
2022/12/13 06:24:26;;;;;;;7.90;6.60;;;15.80;76.40;;;;;;4126671;28;20214;-76
2022/12/13 06:26:28;;;;;;;8.38;6.43;;;15.80;76.30;;;;;;4121726;28;20662;-77
2022/12/13 06:28:30;;;;;;;7.50;6.13;;;15.80;76.20;;;;;;4125165;28;20277;-76
2022/12/13 06:30:33;;;;;;;8.27;5.90;;;15.80;76.40;;;;;;4130898;28;20260;-76
2022/12/13 06:32:35;;;;;;;8.07;6.57;;;15.90;76.00;;;;;;4146262;28;20240;-79
2022/12/13 06:34:38;;;;;;;7.18;5.97;;;15.90;76.20;;;;;;4163236;28;20227;-79
2022/12/13 06:36:41;;;;;;;8.25;6.22;;;15.90;77.00;;;;;;4157374;28;20351;-79
2022/12/13 06:38:44;;;;;;;9.40;6.40;;;15.90;75.90;;;;;;4157791;28;20263;-79
2022/12/13 06:40:46;;;;;;;7.97;6.25;;;16.00;76.60;;;;;;4159665;28;20220;-79
2022/12/13 06:42:48;;;;;;;8.50;6.45;;;16.00;76.00;;;;;;4167189;28;20265;-79
2022/12/13 06:44:51;;;;;;;6.90;6.07;;;16.00;76.20;;;;;;4158438;28;20235;-79
2022/12/13 06:46:54;;;;;;;7.55;6.18;;;16.00;76.20;;;;;;4166550;28;20216;-79
2022/12/13 06:48:57;;;;;;;7.70;6.35;;;16.00;76.30;;;;;;4163116;28;20266;-79
2022/12/13 06:51:01;;;;;;;9.37;6.10;;;16.00;76.60;;;;;;4159912;28;21109;-79
2022/12/13 06:53:05;;;;;;;6.50;5.80;;;16.00;76.60;;;;;;4165821;28;20225;-79
2022/12/13 06:55:08;;;;;;;9.00;6.22;;;16.10;77.00;;;;;;4165049;28;20208;-79
2022/12/13 06:57:11;;;;;;;9.73;6.68;;;16.10;76.30;;;;;;4155883;28;20209;-79
2022/12/13 06:59:13;;;;;;;7.97;6.43;;;16.10;76.60;;;;;;4160210;28;20217;-79
2022/12/13 07:01:18;;;;;;;8.10;6.10;;;16.10;76.50;;;;;;4162420;28;20286;-79
2022/12/13 07:03:20;;;;;;;5.82;5.22;;;16.10;76.70;;;;;;4160756;28;20269;-79
2022/12/13 07:05:23;;;;;;;7.90;5.93;;;16.10;77.40;;;;;;4162750;28;20650;-79
2022/12/13 07:07:26;;;;;;;7.40;5.95;;;16.20;77.50;;;;;;4163379;28;20216;-79
2022/12/13 07:09:30;;;;;;;8.30;6.28;;;16.20;77.10;;;;;;4159864;28;20266;-79
2022/12/13 07:11:33;;;;;;;6.90;6.18;;;16.20;77.60;;;;;;4164166;28;20240;-79
2022/12/13 07:13:36;;;;;;;8.10;6.32;;;16.20;77.90;;;;;;4155210;28;20217;-79
2022/12/13 07:15:38;;;;;;;7.78;6.05;;;16.20;78.10;;;;;;4161807;28;20626;-79
2022/12/13 07:17:41;;;;;;;7.23;5.83;;;16.20;78.40;;;;;;4156372;28;20220;-79
2022/12/13 07:19:44;;;;;;;7.63;6.45;;;16.30;78.70;;;;;;4156985;28;20259;-79
2022/12/13 07:21:46;;;;;;;7.15;5.75;;;16.30;78.40;;;;;;4156139;28;20233;-79
2022/12/13 07:23:49;;;;;;;8.13;6.88;;;16.30;78.30;;;;;;4162042;28;20274;-79
2022/12/13 07:25:53;;;;;;;7.68;6.13;;;16.30;78.50;;;;;;4157051;28;20282;-79
2022/12/13 07:28:01;;;;;;;7.22;5.70;;;16.30;78.90;;;;;;4161329;28;20714;-79
2022/12/13 07:30:04;;;;;;;6.68;5.88;;;16.30;79.10;;;;;;4162438;28;20262;-79
2022/12/13 07:32:06;;;;;;;8.73;6.28;;;16.30;79.50;;;;;;4155187;28;20236;-79
2022/12/13 07:34:08;;;;;;;7.55;5.78;;;16.30;79.10;;;;;;4158522;28;20274;-79
2022/12/13 07:36:13;;;;;;;8.75;6.15;;;16.30;78.90;;;;;;4154545;28;20220;-79
2022/12/13 07:38:16;;;;;;;8.57;6.32;;;16.30;79.80;;;;;;4156357;28;20212;-79
2022/12/13 07:40:18;;;;;;;7.57;6.05;;;16.30;79.80;;;;;;4165929;28;20986;-79
2022/12/13 07:42:22;;;;;;;10.82;6.75;;;16.30;80.00;;;;;;4153078;28;20221;-78
2022/12/13 07:44:25;;;;;;;6.68;5.82;;;16.40;79.90;;;;;;4164266;28;20217;-78
2022/12/13 07:46:28;;;;;;;7.47;5.97;;;16.40;79.40;;;;;;4154021;28;20966;-78
2022/12/13 07:48:31;;;;;;;7.53;6.07;;;16.40;79.80;;;;;;4162765;28;20208;-78
2022/12/13 07:50:33;;;;;;;6.97;5.70;;;16.40;80.90;;;;;;4164758;28;20217;-78
2022/12/13 07:52:35;;;;;;;8.82;5.97;;;16.40;80.70;;;;;;4161347;28;20240;-78
2022/12/13 07:54:38;;;;;;;7.63;6.15;;;16.40;80.50;;;;;;4156241;28;20212;-79
2022/12/13 07:56:40;;;;;;;7.78;6.07;;;16.40;80.90;;;;;;4161607;28;20252;-78
2022/12/13 07:58:46;;;;;;;6.85;5.78;;;16.50;81.00;;;;;;4170630;28;20258;-78
2022/12/13 08:00:48;;;;;;;6.20;5.60;;;16.50;80.90;;;;;;4155256;28;20262;-79
2022/12/13 08:02:50;;;;;;;7.10;5.57;;;16.40;80.80;;;;;;4155589;28;20216;-78
2022/12/13 08:04:53;;;;;;;7.85;6.13;;;16.50;81.40;;;;;;4160814;28;20274;-77
2022/12/13 08:06:56;;;;;;;9.90;6.03;;;16.40;79.70;;;;;;4159445;28;20216;-78
2022/12/13 08:08:58;;;;;;;7.88;6.30;;;16.40;77.60;;;;;;4155756;28;20876;-78
2022/12/13 08:11:02;;;;;;;8.07;6.60;;;16.40;76.20;;;;;;4153475;28;20213;-79
2022/12/13 08:13:04;;;;;;;9.18;6.82;;;16.50;74.50;;;;;;4156978;28;20265;-79
2022/12/13 08:15:09;;;;;;;8.27;6.57;;;16.70;76.60;;;;;;4153442;28;20645;-78
2022/12/13 08:17:11;;;;;;;9.43;6.53;;;16.80;74.80;;;;;;4146177;28;20221;-77
2022/12/13 08:19:14;;;;;;;7.90;6.63;;;16.80;75.40;;;;;;4158217;28;20612;-77
2022/12/13 08:21:16;;;;;;;9.13;6.25;;;17.00;76.30;;;;;;4163022;28;20262;-77
2022/12/13 08:23:18;;;;;;;7.13;6.15;;;17.10;74.90;;;;;;4160186;28;20284;-77
2022/12/13 08:25:21;;;;;;;7.40;6.43;;;17.20;74.80;;;;;;4155264;28;20370;-78
2022/12/13 08:27:23;;;;;;;8.02;6.22;;;17.30;73.10;;;;;;4162468;28;20615;-77
2022/12/13 08:29:25;;;;;;;7.60;6.50;;;17.40;73.80;;;;;;4156966;28;20247;-78
2022/12/13 08:31:29;;;;;;;6.68;5.93;;;17.40;72.50;;;;;;4157448;28;20649;-78
2022/12/13 08:33:33;;;;;;;7.38;5.90;;;17.50;76.10;;;;;;4156268;28;20237;-78
2022/12/13 08:35:35;;;;;;;6.78;6.05;;;17.60;73.20;;;;;;4152691;28;20684;-78
2022/12/13 08:37:37;;;;;;;8.70;5.72;;;17.70;73.70;;;;;;4149252;28;20352;-77
2022/12/13 08:39:40;;;;;;;6.70;5.90;;;17.80;72.80;;;;;;4152252;28;20301;-78
2022/12/13 08:41:42;;;;;;;6.70;5.47;;;17.80;72.70;;;;;;4148456;28;20220;-77
2022/12/13 08:43:45;;;;;;;6.63;5.82;;;17.90;74.20;;;;;;4162343;28;20238;-77
2022/12/13 08:45:50;;;;;;;6.25;5.40;;;17.90;73.80;;;;;;4152726;28;20286;-77
2022/12/13 08:47:53;;;;;;;7.13;5.65;;;18.00;75.60;;;;;;4153884;28;20670;-78
2022/12/13 08:49:58;;;;;;;7.30;5.57;;;18.00;75.50;;;;;;4155771;28;20677;-79
2022/12/13 08:52:00;;;;;;;6.60;5.55;;;18.10;75.80;;;;;;4154137;28;20270;-79
2022/12/13 08:54:03;;;;;;;6.60;5.50;;;18.20;75.80;;;;;;4149450;28;20279;-78
2022/12/13 08:56:09;;;;;;;6.63;5.57;;;18.20;75.50;;;;;;4157665;28;20216;-79
2022/12/13 08:58:13;;;;;;;7.13;6.30;;;18.20;74.40;;;;;;4150801;28;20269;-80
2022/12/13 09:00:18;;;;;;;7.30;5.53;;;18.30;73.90;;;;;;4143886;28;20266;-80
2022/12/13 09:02:20;;;;;;;7.18;5.68;;;18.30;74.30;;;;;;4151030;28;20217;-79
2022/12/13 09:04:24;;;;;;;7.05;5.60;;;18.30;76.20;;;;;;4155509;28;20213;-78
2022/12/13 09:06:26;;;;;;;5.85;5.35;;;18.40;75.70;;;;;;4154428;28;20612;-80
2022/12/13 09:08:28;;;;;;;6.03;5.43;;;18.40;75.90;;;;;;4152618;28;20962;-79
2022/12/13 09:10:31;;;;;;;7.28;5.63;;;18.50;75.80;;;;;;4149378;28;20220;-79
2022/12/13 09:12:33;;;;;;;6.10;5.50;;;18.60;75.50;;;;;;4152452;28;20295;-79
2022/12/13 09:14:35;;;;;;;5.45;4.93;;;18.60;75.80;;;;;;4150268;28;20250;-80
2022/12/13 09:16:38;;;;;;;7.18;5.53;;;18.60;76.30;;;;;;4147489;28;20241;-81
2022/12/13 09:18:40;;;;;;;9.05;6.15;;;18.60;76.60;;;;;;4140307;28;20228;-79
2022/12/13 09:20:44;;;;;;;9.10;6.00;;;18.60;73.50;;;;;;4150003;28;20317;-78
2022/12/13 09:22:47;;;;;;;8.75;5.85;;;18.60;74.70;;;;;;4150155;28;20217;-78
2022/12/13 09:24:58;;;;;;;6.53;5.28;;;18.70;75.80;;;;;;4146036;28;20213;-79
2022/12/13 09:27:01;;;;;;;6.22;5.25;;;18.70;76.70;;;;;;4150256;28;20653;-78
2022/12/13 09:29:03;;;;;;;8.27;5.75;;;18.70;76.30;;;;;;4149456;28;20266;-78
2022/12/13 09:31:08;;;;;;;5.75;4.70;;;18.80;76.20;;;;;;4153911;28;20268;-79
2022/12/13 09:33:12;;;;;;;8.15;5.30;;;18.80;76.80;;;;;;4155601;28;20233;-79
2022/12/13 09:35:14;;;;;;;7.47;5.28;;;18.90;77.00;;;;;;4150323;28;20673;-79
2022/12/13 09:37:18;;;;;;;6.28;5.20;;;18.90;77.70;;;;;;4157822;28;20216;-79
2022/12/13 09:39:21;;;;;;;8.15;5.07;;;18.90;78.40;;;;;;4156137;28;20679;-79
2022/12/13 09:41:29;;;;;;;6.13;5.15;;;19.00;78.00;;;;;;4157020;28;20263;-79
2022/12/13 09:43:34;;;;;;;7.13;4.82;;;19.00;78.30;;;;;;4155307;28;20208;-78
2022/12/13 09:45:38;;;;;;;6.20;5.60;;;19.00;76.80;;;;;;4153550;28;20213;-79
2022/12/13 09:47:45;;;;;;;5.68;5.13;;;19.00;75.20;;;;;;4155230;28;20303;-79
2022/12/13 09:49:48;;;;;;;7.65;5.53;;;19.00;76.70;;;;;;4158282;28;20282;-79
2022/12/13 09:51:54;;;;;;;10.57;6.18;;;19.10;77.00;;;;;;4149879;28;21126;-82
2022/12/13 09:53:58;;;;;;;11.25;6.10;;;19.10;76.70;;;;;;4153191;28;20946;-78
2022/12/13 09:56:00;;;;;;;6.97;5.57;;;19.10;77.20;;;;;;4154939;28;20216;-80
2022/12/13 09:58:08;;;;;;;7.05;5.60;;;19.10;77.70;;;;;;4152125;28;20312;-79
2022/12/13 10:00:16;;;;;;;7.03;5.60;;;19.20;78.50;;;;;;4163153;28;20258;-80
2022/12/13 10:02:23;;;;;;;11.88;5.60;;;19.20;79.40;;;;;;4145857;28;20272;-79
2022/12/13 10:04:29;;;;;;;6.75;5.03;;;19.30;79.00;;;;;;4153944;28;20255;-78
2022/12/13 10:06:33;;;;;;;7.43;5.10;;;19.30;78.20;;;;;;4154723;28;20262;-77
2022/12/13 10:08:38;;;;;;;6.57;5.30;;;19.40;78.60;;;;;;4156557;28;20258;-78
2022/12/13 10:10:51;;;;;;;5.80;5.22;;;19.40;78.40;;;;;;4160986;28;20271;-79
2022/12/13 10:12:59;;;;;;;6.35;5.22;;;19.50;78.40;;;;;;4148026;28;20224;-77
2022/12/13 10:15:03;;;;;;;7.05;5.60;;;19.50;78.50;;;;;;4153035;28;20208;-78
2022/12/13 10:17:08;;;;;;;7.05;5.47;;;19.50;78.60;;;;;;4150117;28;20213;-79
2022/12/13 10:19:16;;;;;;;6.40;5.05;;;19.50;78.80;;;;;;4155052;28;20713;-78
2022/12/13 10:21:25;;;;;;;6.85;5.45;;;19.50;79.10;;;;;;4160755;28;20227;-78
2022/12/13 10:23:27;;;;;;;7.07;5.53;;;19.60;79.20;;;;;;4148372;28;20208;-80
2022/12/13 10:25:46;;;;;;;7.40;5.40;;;19.60;79.70;;;;;;4147601;28;20228;-80
2022/12/13 10:27:49;;;;;;;7.72;5.03;;;19.70;79.50;;;;;;4155030;28;22160;-79
2022/12/13 10:30:00;;;;;;;9.65;5.40;;;19.70;78.90;;;;;;4156100;28;20287;-83
2022/12/13 10:32:12;;;;;;;8.10;5.85;;;19.70;79.60;;;;;;4148914;28;20286;-81
2022/12/13 10:34:23;;;;;;;9.32;5.40;;;19.70;78.80;;;;;;4150475;28;20241;-81
2022/12/13 10:36:33;;;;;;;6.38;4.68;;;19.70;78.10;;;;;;4155516;28;20275;-84
2022/12/13 10:38:38;;;;;;;6.75;5.28;;;19.60;77.70;;;;;;4162597;28;20220;-83
2022/12/13 10:40:44;;;;;;;7.28;5.55;;;19.70;78.20;;;;;;4153993;28;20233;-79
2022/12/13 10:42:54;;;;;;;6.30;5.50;;;19.70;77.60;;;;;;4154459;28;20640;-83
2022/12/13 10:45:10;;;;;;;5.57;5.03;;;19.70;77.90;;;;;;4155084;28;20274;-81
2022/12/13 10:47:16;;;;;;;5.43;4.82;;;19.70;78.50;;;;;;4149370;28;20270;-80
2022/12/13 10:49:21;;;;;;;8.00;5.25;;;19.70;78.70;;;;;;4154889;28;20838;-82
2022/12/13 10:51:27;;;;;;;8.13;4.97;;;19.80;78.90;;;;;;4155677;28;20208;-80